Aktualna pogoda na lotniskach (dane METAR)

 

EPGD - Gdansk/Rebiechow, Poland
Distance from station: ENE 44km
Updated: Thu, 23-Nov-2017 04:30 CET
Few Clouds
Few Clouds
 Wind from SSW
Wiatr: SSW 15 km/h
Temperatura: 6°C
Indeks Wychł.: 3°C
Punkt Rosy: 6°C
Wilgotność: 100%
Ciśnienie: 1007 hPa
Zachmurzenie: Few Clouds
Widzialność: 6 km
Szczegóły zachm.: Few Clouds 213 m
2017/11/23 03:30 EPGD 230330Z 20008KT 6000 FEW007 06/06 Q1007 R11/290095
EPSC - Szczecin/Golenio, Poland
Distance from station: WSW 205km
Updated: Thu, 23-Nov-2017 04:30 CET
Clear
Clear
 Wind from SSE
Wiatr: SSE 20 km/h
Temperatura: 5°C
Indeks Wychł.: 1°C
Punkt Rosy: 4°C
Wilgotność: 93%
Ciśnienie: 1006 hPa
Ogólnie: Clear
Widzialność: greater than 10 km
2017/11/23 03:30 EPSC 230330Z 15011KT CAVOK 05/04 Q1006
 
EPPO - Poznan/Lawica, Poland
Distance from station: SSW 210km
Updated: Thu, 23-Nov-2017 04:30 CET
Partly Cloudy
Partly Cloudy
 Wind from S
Wiatr: S 7 km/h
Temperatura: 4°C
Indeks Wychł.: 2°C
Punkt Rosy: 4°C
Wilgotność: 100%
Ciśnienie: 1010 hPa
Zachmurzenie: Partly Cloudy
Widzialność: 7 km
2017/11/23 03:30 EPPO 230330Z 17004KT 7000 NSC 04/04 Q1010
EPLL - Lodz/Lublinek, Poland
Distance from station: SSE 296km
Updated: Thu, 23-Nov-2017 04:30 CET
Shallow fog, Mist, Partly cloudy
Shallow fog, Mist, Partly cloudy
 Wind from SE
Wiatr: SE 7 km/h
Temperatura: 4°C
Indeks Wychł.: 2°C
Punkt Rosy: 4°C
Wilgotność: 100%
Ciśnienie: 1012 hPa
Ogólnie: Shallow fog, Mist
Zachmurzenie: Partly Cloudy
Widzialność: 3 km
2017/11/23 03:30 EPLL 230330Z 13004KT 060V160 3000 MIFG BR NSC 04/04 Q1012
 
EPWA - Warsaw/Okecie, Poland
Distance from station: SE 307km
Updated: Thu, 23-Nov-2017 04:30 CET
Mist, Overcast
Mist, Overcast
 Wind from SE
Wiatr: SE 7 km/h
Temperatura: 5°C
Indeks Wychł.: 3°C
Punkt Rosy: 5°C
Wilgotność: 100%
Ciśnienie: 1014 hPa
Ogólnie: Mist
Zachmurzenie: Overcast
Widzialność: 5 km
Szczegóły zachm.: Mostly Cloudy 91 m
Overcast 671 m
2017/11/23 03:30 EPWA 230330Z 14004KT 5000 BR BKN003 OVC022 05/05 Q1014 TEMPO SCT003
EPWR - Wroclaw/Strachow, Poland
Distance from station: S 352km
Updated: Thu, 23-Nov-2017 04:30 CET
Shallow fog, Partly cloudy
Shallow fog, Partly cloudy
 Wind from SE
Wiatr: SE 9 km/h
Temperatura: 2°C
Indeks Wychł.: -1°C
Punkt Rosy: 1°C
Wilgotność: 93%
Ciśnienie: 1011 hPa
Ogólnie: Shallow Fog
Zachmurzenie: Partly Cloudy
Widzialność: 10 km
2017/11/23 03:30 EPWR 230330Z 14005KT 9999 MIFG NSC 02/01 Q1011

Metar display script from Saratoga-Weather.org